Time;durP1;ratioP1;P1;durP2;ratioP2;P2;SDS_P1;SDS_P2;PMS_P1;PMS_P2;Temp;Humidity;BMP_temperature;BMP_pressure;BME280_temperature;BME280_humidity;BME280_pressure;Samples;Min_cycle;Max_cycle;Signal;HPM_P1;HPM_P2
2024/04/03 00:01:19;;;;;;;;;;;24.80;53.40;;;;;;5079465;28;19921;-49
2024/04/03 00:03:45;;;;;;;;;;;24.80;53.40;;;;;;5072662;28;19921;-46
2024/04/03 00:06:12;;;;;;;;;;;24.80;53.40;;;;;;5064155;28;19913;-46
2024/04/03 00:08:38;;;;;;;;;;;24.80;53.40;;;;;;5066433;28;19913;-44
2024/04/03 00:11:04;;;;;;;;;;;24.80;53.30;;;;;;5072733;28;19920;-45
2024/04/03 00:13:30;;;;;;;;;;;24.80;53.40;;;;;;5072816;28;19913;-48
2024/04/03 00:15:57;;;;;;;;;;;24.80;53.40;;;;;;5070895;28;19944;-48
2024/04/03 00:18:23;;;;;;;;;;;24.80;53.40;;;;;;5071544;28;20015;-49
2024/04/03 00:20:58;;;;;;;;;;;24.80;53.40;;;;;;5071235;28;19923;-44
2024/04/03 00:23:27;;;;;;;;;;;24.80;53.40;;;;;;5070261;28;19936;-44
2024/04/03 00:25:59;;;;;;;;;;;24.80;54.00;;;;;;5072594;28;19912;-46
2024/04/03 00:28:25;;;;;;;;;;;24.80;53.40;;;;;;5071114;28;19951;-47
2024/04/03 00:30:54;;;;;;;;;;;24.80;53.40;;;;;;5069760;28;19915;-44
2024/04/03 00:33:24;;;;;;;;;;;24.80;53.40;;;;;;5070741;28;19926;-46
2024/04/03 00:36:02;;;;;;;;;;;24.80;53.30;;;;;;5071296;28;19913;-46
2024/04/03 00:38:29;;;;;;;;;;;24.70;53.20;;;;;;5068381;28;19952;-46
2024/04/03 00:40:59;;;;;;;;;;;24.80;53.30;;;;;;5068527;28;19966;-44
2024/04/03 00:43:25;;;;;;;;;;;24.80;53.30;;;;;;5064523;28;19925;-51
2024/04/03 00:45:52;;;;;;;;;;;24.70;53.20;;;;;;5064155;28;19974;-48
2024/04/03 00:48:21;;;;;;;;;;;24.70;53.20;;;;;;5064849;28;19913;-44
2024/04/03 00:50:49;;;;;;;;;;;24.70;53.20;;;;;;5074401;28;19909;-48
2024/04/03 00:53:16;;;;;;;;;;;24.70;53.20;;;;;;5075838;28;19954;-45
2024/04/03 00:55:42;;;;;;;;;;;24.70;53.20;;;;;;5071378;28;19931;-49
2024/04/03 00:58:08;;;;;;;;;;;24.70;53.30;;;;;;5069949;28;19913;-47
2024/04/03 01:00:35;;;;;;;;;;;24.70;53.20;;;;;;5082632;28;19942;-46
2024/04/03 01:03:02;;;;;;;;;;;24.70;53.30;;;;;;5078986;28;19974;-45
2024/04/03 01:05:31;;;;;;;;;;;24.60;53.20;;;;;;5080794;28;19912;-44
2024/04/03 01:07:57;;;;;;;;;;;24.70;53.30;;;;;;5082038;28;19947;-46
2024/04/03 01:10:23;;;;;;;;;;;24.60;53.30;;;;;;5073111;28;20011;-45
2024/04/03 01:12:49;;;;;;;;;;;24.60;53.20;;;;;;5071531;28;19923;-45
2024/04/03 01:15:15;;;;;;;;;;;24.60;53.20;;;;;;5071733;28;20007;-47
2024/04/03 01:17:42;;;;;;;;;;;24.60;53.20;;;;;;5071884;28;20001;-44
2024/04/03 01:20:08;;;;;;;;;;;24.60;53.10;;;;;;5072953;28;20388;-49
2024/04/03 01:22:35;;;;;;;;;;;24.60;53.10;;;;;;5071620;28;19916;-46
2024/04/03 01:25:01;;;;;;;;;;;24.60;53.00;;;;;;5072125;28;19928;-47
2024/04/03 01:27:30;;;;;;;;;;;24.60;53.10;;;;;;5067573;28;19909;-44
2024/04/03 01:29:56;;;;;;;;;;;24.60;53.10;;;;;;5070096;28;19920;-46
2024/04/03 01:32:25;;;;;;;;;;;24.60;53.10;;;;;;5069382;28;19912;-46
2024/04/03 01:34:51;;;;;;;;;;;24.60;53.20;;;;;;5071438;28;19912;-48
2024/04/03 01:37:17;;;;;;;;;;;24.60;53.20;;;;;;5071054;28;19912;-48
2024/04/03 01:39:47;;;;;;;;;;;24.60;53.20;;;;;;5073035;28;20369;-47
2024/04/03 01:42:13;;;;;;;;;;;24.60;53.20;;;;;;5074505;28;19962;-49
2024/04/03 01:44:40;;;;;;;;;;;24.60;53.10;;;;;;5080733;28;20007;-48
2024/04/03 01:47:07;;;;;;;;;;;24.50;53.10;;;;;;5068666;28;19971;-47
2024/04/03 01:49:33;;;;;;;;;;;24.50;53.00;;;;;;5081101;28;20035;-47
2024/04/03 01:52:02;;;;;;;;;;;24.50;53.00;;;;;;5081726;28;19912;-48
2024/04/03 01:54:29;;;;;;;;;;;24.50;53.00;;;;;;5074916;28;19913;-48
2024/04/03 01:56:55;;;;;;;;;;;24.50;52.90;;;;;;5064614;28;19909;-47
2024/04/03 01:59:21;;;;;;;;;;;24.50;52.90;;;;;;5078037;28;19999;-49
2024/04/03 02:01:49;;;;;;;;;;;24.50;52.90;;;;;;5078800;28;19919;-48
2024/04/03 02:04:15;;;;;;;;;;;24.50;52.90;;;;;;5081002;28;19920;-51
2024/04/03 02:06:41;;;;;;;;;;;24.50;52.90;;;;;;5064079;28;19919;-50
2024/04/03 02:09:07;;;;;;;;;;;24.50;52.90;;;;;;5067431;28;19908;-50
2024/04/03 02:11:33;;;;;;;;;;;24.50;53.00;;;;;;5072830;28;19913;-48
2024/04/03 02:13:59;;;;;;;;;;;24.50;53.10;;;;;;5076065;28;19913;-52
2024/04/03 02:16:27;;;;;;;;;;;24.40;53.00;;;;;;5078540;28;19923;-51
2024/04/03 02:18:53;;;;;;;;;;;24.40;53.00;;;;;;5084809;28;19984;-47
2024/04/03 02:21:19;;;;;;;;;;;24.40;53.00;;;;;;5083715;28;19909;-49
2024/04/03 02:23:47;;;;;;;;;;;24.40;53.00;;;;;;5076109;28;20144;-49
2024/04/03 02:26:13;;;;;;;;;;;24.40;52.90;;;;;;5081067;28;19908;-50
2024/04/03 02:28:39;;;;;;;;;;;24.40;52.90;;;;;;5083809;28;19908;-49
2024/04/03 02:31:05;;;;;;;;;;;24.40;52.90;;;;;;5079130;28;19971;-48
2024/04/03 02:33:31;;;;;;;;;;;24.40;52.80;;;;;;5072972;28;19934;-47
2024/04/03 02:35:57;;;;;;;;;;;24.40;52.70;;;;;;5072963;28;19936;-49
2024/04/03 02:38:23;;;;;;;;;;;24.40;52.70;;;;;;5074274;28;19912;-49
2024/04/03 02:40:48;;;;;;;;;;;24.40;52.80;;;;;;5081984;28;19954;-49
2024/04/03 02:43:14;;;;;;;;;;;24.40;52.80;;;;;;5084076;28;19987;-50
2024/04/03 02:45:40;;;;;;;;;;;24.30;52.90;;;;;;5076987;28;19920;-51
2024/04/03 02:48:06;;;;;;;;;;;24.30;53.00;;;;;;5078438;28;19916;-47
2024/04/03 02:50:33;;;;;;;;;;;24.30;53.00;;;;;;5075849;28;19912;-45
2024/04/03 02:52:59;;;;;;;;;;;24.30;53.10;;;;;;5078073;28;19935;-45
2024/04/03 02:55:24;;;;;;;;;;;24.30;53.10;;;;;;5082899;28;20014;-47
2024/04/03 02:57:51;;;;;;;;;;;24.30;53.00;;;;;;5077809;28;20360;-47
2024/04/03 03:00:18;;;;;;;;;;;24.30;52.90;;;;;;5077286;28;19909;-47
2024/04/03 03:02:46;;;;;;;;;;;24.30;52.90;;;;;;5070021;28;19919;-49
2024/04/03 03:05:12;;;;;;;;;;;24.30;52.90;;;;;;5072748;28;19915;-47
2024/04/03 03:07:38;;;;;;;;;;;24.30;52.80;;;;;;5069337;28;19912;-44
2024/04/03 03:10:04;;;;;;;;;;;24.30;52.90;;;;;;5078470;28;19931;-46
2024/04/03 03:12:30;;;;;;;;;;;24.30;52.90;;;;;;5073994;28;19938;-46
2024/04/03 03:14:56;;;;;;;;;;;24.20;52.80;;;;;;5077154;28;19921;-43
2024/04/03 03:17:22;;;;;;;;;;;24.30;52.90;;;;;;5071906;28;19908;-43
2024/04/03 03:19:48;;;;;;;;;;;24.20;52.90;;;;;;5075162;28;19915;-44
2024/04/03 03:22:14;;;;;;;;;;;24.20;53.00;;;;;;5072800;28;19913;-49
2024/04/03 03:24:40;;;;;;;;;;;24.20;53.10;;;;;;5073192;28;19920;-43
2024/04/03 03:27:06;;;;;;;;;;;24.20;53.10;;;;;;5074271;28;19916;-45
2024/04/03 03:29:32;;;;;;;;;;;24.20;53.10;;;;;;5074204;28;19946;-44
2024/04/03 03:31:58;;;;;;;;;;;24.20;53.10;;;;;;5072056;28;19909;-49
2024/04/03 03:34:24;;;;;;;;;;;24.20;53.00;;;;;;5073022;28;19916;-48
2024/04/03 03:36:50;;;;;;;;;;;24.20;53.10;;;;;;5073984;28;19918;-48
2024/04/03 03:39:16;;;;;;;;;;;24.20;53.00;;;;;;5080101;28;19936;-48
2024/04/03 03:41:42;;;;;;;;;;;24.20;53.10;;;;;;5068377;28;20022;-45
2024/04/03 03:44:08;;;;;;;;;;;24.10;53.00;;;;;;5076679;28;19924;-44
2024/04/03 03:46:34;;;;;;;;;;;24.20;53.10;;;;;;5079160;28;19920;-40
2024/04/03 04:03:43;;;;;;;5.28;3.50;;;24.10;52.60;;;;;;5131607;27;20464;-34
2024/04/03 04:06:10;;;;;;;4.18;3.50;;;24.10;53.40;;;;;;5126833;27;20077;-33
2024/04/03 04:08:36;;;;;;;6.38;3.97;;;24.10;53.30;;;;;;5119663;27;20032;-33
2024/04/03 04:11:03;;;;;;;4.80;3.95;;;24.10;53.30;;;;;;5127860;27;20380;-33
2024/04/03 04:13:30;;;;;;;4.70;3.90;;;24.10;53.40;;;;;;5124663;27;20034;-33
2024/04/03 04:16:00;;;;;;;4.30;3.50;;;24.10;53.40;;;;;;5111761;27;20020;-33
2024/04/03 04:18:26;;;;;;;6.00;3.70;;;24.10;53.50;;;;;;5114294;28;20028;-33
2024/04/03 04:20:56;;;;;;;5.40;3.88;;;24.10;53.40;;;;;;5124039;28;20082;-34
2024/04/03 04:23:22;;;;;;;4.53;3.80;;;24.10;53.50;;;;;;5115186;28;20479;-35
2024/04/03 04:25:56;;;;;;;4.80;3.58;;;24.10;53.50;;;;;;5121255;28;20039;-33
2024/04/03 04:28:25;;;;;;;4.03;3.33;;;24.10;53.50;;;;;;5118269;28;20062;-33
2024/04/03 04:31:01;;;;;;;4.13;3.40;;;24.00;53.60;;;;;;5119448;28;20062;-33
2024/04/03 04:33:35;;;;;;;5.25;3.67;;;24.00;53.60;;;;;;5115201;28;20035;-33
2024/04/03 04:36:01;;;;;;;5.07;3.15;;;24.00;53.60;;;;;;5124515;28;20027;-32
2024/04/03 04:38:49;;;;;;;4.47;3.40;;;24.00;53.70;;;;;;5134119;27;20429;-32
2024/04/03 04:44:19;;;;;;;4.28;3.30;;;24.00;53.70;;;;;;5111545;28;19993;-33
2024/04/03 04:46:52;;;;;;;5.95;3.60;;;24.00;53.70;;;;;;5125653;28;20024;-32
2024/04/03 04:49:19;;;;;;;4.30;3.72;;;23.90;53.70;;;;;;5127135;28;20446;-32
2024/04/03 04:51:45;;;;;;;4.80;3.30;;;23.90;53.70;;;;;;5120834;27;20027;-32
2024/04/03 04:54:12;;;;;;;5.00;3.45;;;23.90;53.80;;;;;;5117833;28;20038;-33
2024/04/03 04:56:44;;;;;;;4.60;3.28;;;23.90;53.80;;;;;;5114396;28;20024;-33
2024/04/03 04:59:11;;;;;;;3.70;3.13;;;23.90;53.80;;;;;;5113560;28;20039;-33
2024/04/03 05:01:39;;;;;;;3.67;2.75;;;23.80;53.80;;;;;;5123173;27;20036;-34
2024/04/03 05:04:05;;;;;;;3.20;2.90;;;23.80;53.80;;;;;;5106412;27;20043;-34
2024/04/03 05:06:32;;;;;;;4.35;3.05;;;23.80;53.80;;;;;;5098302;28;20028;-33
2024/04/03 05:08:58;;;;;;;3.30;2.92;;;23.80;53.90;;;;;;5112917;28;20039;-33
2024/04/03 05:11:24;;;;;;;4.93;2.88;;;23.80;53.90;;;;;;5119165;28;20123;-33
2024/04/03 05:13:50;;;;;;;3.50;3.17;;;23.80;53.90;;;;;;5090505;28;20023;-33
2024/04/03 05:16:20;;;;;;;3.97;3.15;;;23.80;53.90;;;;;;5106089;28;20026;-33
2024/04/03 05:18:47;;;;;;;4.10;3.15;;;23.80;53.90;;;;;;5097207;28;20035;-33
2024/04/03 05:21:14;;;;;;;6.50;3.83;;;23.80;54.00;;;;;;5102015;28;20032;-33
2024/04/03 05:23:40;;;;;;;3.40;2.73;;;23.80;54.00;;;;;;5091411;28;20028;-34
2024/04/03 05:26:13;;;;;;;3.70;3.10;;;23.70;53.90;;;;;;5116030;28;20500;-33
2024/04/03 05:28:40;;;;;;;3.85;3.03;;;23.70;54.00;;;;;;5110925;28;20050;-34
2024/04/03 05:31:08;;;;;;;3.07;2.70;;;23.70;54.00;;;;;;5106470;28;20032;-41
2024/04/03 05:33:35;;;;;;;3.80;3.20;;;23.70;54.00;;;;;;5098372;28;20064;-41
2024/04/03 05:36:01;;;;;;;3.40;2.60;;;23.70;54.10;;;;;;5105704;28;20023;-33
2024/04/03 05:38:28;;;;;;;4.72;3.05;;;23.70;54.10;;;;;;5107684;28;20025;-33
2024/04/03 05:40:54;;;;;;;4.40;2.83;;;23.70;54.10;;;;;;5117802;28;20024;-33
2024/04/03 05:43:21;;;;;;;3.08;2.50;;;23.70;54.10;;;;;;5109784;28;20030;-34
2024/04/03 05:45:47;;;;;;;4.13;3.20;;;23.60;54.10;;;;;;5101566;28;20060;-34
2024/04/03 05:48:14;;;;;;;3.22;2.92;;;23.60;54.10;;;;;;5126307;27;20264;-33
2024/04/03 05:50:41;;;;;;;4.40;3.17;;;23.60;54.10;;;;;;5114854;28;20034;-34
2024/04/03 05:53:07;;;;;;;4.60;3.47;;;23.60;54.10;;;;;;5099279;27;20044;-34
2024/04/03 05:55:33;;;;;;;3.13;2.80;;;23.60;54.10;;;;;;5100281;28;20056;-34
2024/04/03 05:58:00;;;;;;;3.28;2.58;;;23.60;54.10;;;;;;5099862;28;20090;-34
2024/04/03 06:00:26;;;;;;;3.70;2.90;;;23.60;54.10;;;;;;5110928;28;20100;-34
2024/04/03 06:02:53;;;;;;;3.53;2.70;;;23.60;54.20;;;;;;5104535;28;20044;-34
2024/04/03 06:05:19;;;;;;;4.82;2.80;;;23.60;54.20;;;;;;5101245;28;20031;-34
2024/04/03 06:07:45;;;;;;;3.00;2.70;;;23.60;54.20;;;;;;5100998;28;20032;-34
2024/04/03 06:10:12;;;;;;;3.13;2.83;;;23.50;54.20;;;;;;5104552;28;20027;-34
2024/04/03 06:12:42;;;;;;;5.43;2.90;;;23.50;54.20;;;;;;5104722;28;20046;-34
2024/04/03 06:15:08;;;;;;;3.42;3.13;;;23.50;54.20;;;;;;5094130;28;20037;-34
2024/04/03 06:17:34;;;;;;;3.10;2.78;;;23.50;54.30;;;;;;5094572;28;20025;-34
2024/04/03 06:20:01;;;;;;;4.87;2.90;;;23.50;54.30;;;;;;5094174;28;20042;-34
2024/04/03 06:22:27;;;;;;;4.15;3.10;;;23.50;54.40;;;;;;5096378;28;20023;-34
2024/04/03 06:24:53;;;;;;;4.38;3.10;;;23.50;54.30;;;;;;5107492;28;20460;-34
2024/04/03 06:27:19;;;;;;;4.63;2.88;;;23.50;54.30;;;;;;5093175;28;20031;-34
2024/04/03 06:29:45;;;;;;;3.53;2.75;;;23.50;54.30;;;;;;5096025;28;20056;-34
2024/04/03 06:32:12;;;;;;;3.55;2.63;;;23.50;54.30;;;;;;5095390;28;20032;-34
2024/04/03 06:34:38;;;;;;;3.85;3.10;;;23.40;54.30;;;;;;5096442;28;20091;-34
2024/04/03 06:37:04;;;;;;;3.35;2.75;;;23.40;54.30;;;;;;5119009;28;20059;-33
2024/04/03 06:39:31;;;;;;;3.63;2.88;;;23.40;54.40;;;;;;5103054;28;20485;-33
2024/04/03 06:41:58;;;;;;;3.40;2.95;;;23.40;54.90;;;;;;5109311;28;20028;-36
2024/04/03 06:44:24;;;;;;;3.83;2.92;;;23.40;54.40;;;;;;5092116;28;20072;-33
2024/04/03 06:46:50;;;;;;;3.38;2.70;;;23.40;54.40;;;;;;5091275;28;20036;-33
2024/04/03 06:49:16;;;;;;;3.47;2.83;;;23.40;54.40;;;;;;5103592;28;20557;-32
2024/04/03 06:51:42;;;;;;;3.42;3.13;;;23.40;54.40;;;;;;5103395;28;20040;-32
2024/04/03 06:54:09;;;;;;;3.90;3.10;;;23.30;54.40;;;;;;5094975;28;20083;-32
2024/04/03 06:56:35;;;;;;;3.22;2.70;;;23.30;54.40;;;;;;5102199;28;20020;-32
2024/04/03 06:59:02;;;;;;;3.08;2.78;;;23.30;54.40;;;;;;5094070;28;20031;-32
2024/04/03 07:01:28;;;;;;;3.55;3.00;;;23.30;54.40;;;;;;5094673;28;20032;-33
2024/04/03 07:03:56;;;;;;;3.35;3.05;;;23.30;54.40;;;;;;5103991;28;20035;-32
2024/04/03 07:06:22;;;;;;;4.13;2.58;;;23.30;54.40;;;;;;5115170;28;20031;-32
2024/04/03 07:08:49;;;;;;;3.23;2.70;;;23.30;54.40;;;;;;5121282;28;20047;-33
2024/04/03 07:11:15;;;;;;;3.28;2.83;;;23.30;54.50;;;;;;5106376;27;20031;-32
2024/04/03 07:13:41;;;;;;;3.60;2.90;;;23.30;54.40;;;;;;5115773;28;20043;-33
2024/04/03 07:16:07;;;;;;;4.17;2.80;;;23.20;54.40;;;;;;5099993;28;20043;-33
2024/04/03 07:18:37;;;;;;;3.35;2.80;;;23.20;54.50;;;;;;5089261;28;20020;-33
2024/04/03 07:21:04;;;;;;;2.88;2.55;;;23.20;54.50;;;;;;5099455;28;20027;-33
2024/04/03 07:23:31;;;;;;;2.92;2.50;;;23.20;54.50;;;;;;5097782;28;20024;-32
2024/04/03 07:25:57;;;;;;;3.83;2.63;;;23.20;54.50;;;;;;5095950;28;20032;-32
2024/04/03 07:28:24;;;;;;;3.13;2.70;;;23.20;54.60;;;;;;5117002;28;20038;-32
2024/04/03 07:30:50;;;;;;;2.72;2.20;;;23.20;54.50;;;;;;5104233;28;20044;-32
2024/04/03 07:33:17;;;;;;;2.97;2.47;;;23.20;54.60;;;;;;5101198;28;20070;-33
2024/04/03 07:35:43;;;;;;;2.78;2.55;;;23.20;54.50;;;;;;5101446;28;20024;-32
2024/04/03 07:38:10;;;;;;;3.47;2.83;;;23.20;54.50;;;;;;5095776;28;20551;-32
2024/04/03 07:40:36;;;;;;;4.03;2.83;;;23.20;54.50;;;;;;5102612;28;20026;-32
2024/04/03 07:43:03;;;;;;;2.55;2.33;;;23.10;54.50;;;;;;5099347;28;20032;-32
2024/04/03 07:45:29;;;;;;;2.75;2.55;;;23.10;54.50;;;;;;5097215;28;20036;-32
2024/04/03 07:47:57;;;;;;;3.22;2.80;;;23.10;54.60;;;;;;5098904;28;20073;-32
2024/04/03 07:50:23;;;;;;;3.17;2.45;;;23.10;54.50;;;;;;5095476;28;20028;-33
2024/04/03 07:52:50;;;;;;;2.60;2.40;;;23.10;54.60;;;;;;5109404;28;20036;-32
2024/04/03 07:55:16;;;;;;;3.17;2.40;;;23.10;54.60;;;;;;5092294;28;20048;-32
2024/04/03 07:57:42;;;;;;;2.67;2.33;;;23.10;54.60;;;;;;5096824;28;20031;-37
2024/04/03 08:00:09;;;;;;;2.72;2.53;;;23.10;54.60;;;;;;5101875;28;20280;-37
2024/04/03 08:02:37;;;;;;;2.90;2.38;;;23.10;54.60;;;;;;5095483;28;20126;-36
2024/04/03 08:05:09;;;;;;;2.80;2.47;;;23.10;54.60;;;;;;5102996;28;20037;-37
2024/04/03 08:07:36;;;;;;;2.92;2.58;;;23.00;54.60;;;;;;5112751;28;20116;-38
2024/04/03 08:10:06;;;;;;;2.80;2.50;;;23.00;54.60;;;;;;5110063;28;20032;-36
2024/04/03 08:12:33;;;;;;;2.60;2.25;;;23.00;54.60;;;;;;5107003;28;20865;-36
2024/04/03 08:15:00;;;;;;;3.53;2.42;;;23.00;54.60;;;;;;5102493;28;20111;-38
2024/04/03 08:17:26;;;;;;;3.67;2.70;;;23.00;54.60;;;;;;5094829;28;20036;-38
2024/04/03 08:19:53;;;;;;;2.72;2.40;;;23.00;54.60;;;;;;5093754;28;22354;-38
2024/04/03 08:22:20;;;;;;;2.75;2.40;;;23.00;54.60;;;;;;5094492;28;20100;-38
2024/04/03 08:24:46;;;;;;;3.85;2.47;;;22.90;54.60;;;;;;5096828;28;20020;-39
2024/04/03 08:27:13;;;;;;;3.00;2.50;;;23.00;54.70;;;;;;5095605;28;20066;-38
2024/04/03 08:29:48;;;;;;;2.47;2.28;;;23.00;54.70;;;;;;5094277;28;20110;-39
2024/04/03 08:32:15;;;;;;;2.90;2.40;;;23.00;54.70;;;;;;5096188;28;20099;-36
2024/04/03 08:34:44;;;;;;;2.53;2.33;;;22.90;54.60;;;;;;5095452;28;20039;-38
2024/04/03 08:37:12;;;;;;;2.92;2.67;;;22.90;54.60;;;;;;5098549;28;20523;-40
2024/04/03 08:39:38;;;;;;;2.75;2.20;;;22.90;54.70;;;;;;5098318;28;20035;-38
2024/04/03 08:42:05;;;;;;;2.40;2.20;;;22.90;54.70;;;;;;5100888;28;20093;-38
2024/04/03 08:44:34;;;;;;;2.93;2.10;;;22.90;54.70;;;;;;5099476;28;20024;-39
2024/04/03 08:47:01;;;;;;;2.50;2.03;;;22.90;54.70;;;;;;5097529;28;20158;-37
2024/04/03 08:49:29;;;;;;;2.78;2.30;;;22.90;54.70;;;;;;5109192;28;20027;-38
2024/04/03 08:52:01;;;;;;;;;;;22.90;54.70;;;;;;5109372;27;20063;-38
2024/04/03 08:54:28;;;;;;;2.72;2.33;;;22.90;54.70;;;;;;5133860;27;19928;-38
2024/04/03 08:56:58;;;;;;;2.53;2.27;;;22.90;54.70;;;;;;5101662;28;20606;-38
2024/04/03 08:59:25;;;;;;;3.17;2.33;;;22.90;54.70;;;;;;5106944;28;20824;-38
2024/04/03 09:01:51;;;;;;;2.93;2.30;;;22.90;54.80;;;;;;5104982;28;20044;-36
2024/04/03 09:04:18;;;;;;;2.65;2.33;;;22.80;54.70;;;;;;5104908;28;20043;-38
2024/04/03 09:06:45;;;;;;;6.00;2.75;;;22.80;54.80;;;;;;5104381;28;20773;-38
2024/04/03 09:09:25;;;;;;;2.42;2.10;;;22.80;54.80;;;;;;5104120;28;20024;-39
2024/04/03 09:11:59;;;;;;;2.30;2.10;;;22.80;54.80;;;;;;5112428;28;20492;-38
2024/04/03 09:14:26;;;;;;;3.03;2.05;;;22.80;54.80;;;;;;5103016;28;20031;-43
2024/04/03 09:17:01;;;;;;;2.10;1.90;;;22.80;54.80;;;;;;5104568;28;20551;-38
2024/04/03 09:19:28;;;;;;;3.90;1.92;;;22.80;54.80;;;;;;5098290;28;20686;-36
2024/04/03 09:21:55;;;;;;;2.50;2.10;;;22.80;54.80;;;;;;5097490;28;20032;-37
2024/04/03 09:24:21;;;;;;;3.50;2.15;;;22.80;54.90;;;;;;5095837;28;20032;-39
2024/04/03 09:26:48;;;;;;;2.65;2.00;;;22.80;54.80;;;;;;5099649;28;20069;-35
2024/04/03 09:29:17;;;;;;;2.17;1.75;;;22.80;54.80;;;;;;5097702;28;20043;-37
2024/04/03 09:31:46;;;;;;;2.42;2.00;;;22.70;54.80;;;;;;5095943;28;20131;-33
2024/04/03 09:34:13;;;;;;;2.38;1.90;;;22.70;54.80;;;;;;5099718;28;20059;-35
2024/04/03 09:36:40;;;;;;;3.78;1.90;;;22.70;55.00;;;;;;5097106;28;20024;-36
2024/04/03 09:39:09;;;;;;;2.55;2.28;;;22.70;54.80;;;;;;5101080;28;20036;-41
2024/04/03 09:41:35;;;;;;;2.85;1.80;;;22.70;54.80;;;;;;5097876;28;20101;-40
2024/04/03 09:44:03;;;;;;;2.33;2.00;;;22.70;54.80;;;;;;5098388;28;20520;-40
2024/04/03 09:46:46;;;;;;;2.15;1.90;;;22.70;54.90;;;;;;5099007;28;20024;-41
2024/04/03 09:49:14;;;;;;;2.45;2.00;;;22.70;54.80;;;;;;5094286;28;20265;-37
2024/04/03 09:51:40;;;;;;;2.00;1.80;;;22.70;54.90;;;;;;5094410;28;20394;-37
2024/04/03 09:54:09;;;;;;;2.05;1.85;;;22.60;54.90;;;;;;5099530;28;20044;-37
2024/04/03 09:56:37;;;;;;;2.13;1.92;;;22.60;54.80;;;;;;5089980;28;20032;-37
2024/04/03 09:59:03;;;;;;;2.47;1.77;;;22.60;54.90;;;;;;5099611;28;20027;-37
2024/04/03 10:01:30;;;;;;;1.85;1.70;;;22.60;54.80;;;;;;5097712;28;20032;-37
2024/04/03 10:04:03;;;;;;;;;;;22.60;54.80;;;;;;5117277;28;20024;-37
2024/04/03 10:06:34;;;;;;;2.70;2.10;;;22.60;54.90;;;;;;5103042;28;19908;-36
2024/04/03 10:09:13;;;;;;;1.77;1.58;;;22.60;54.80;;;;;;5094498;28;20016;-37
2024/04/03 10:11:44;;;;;;;2.85;1.88;;;22.60;54.90;;;;;;5102065;28;20094;-37
2024/04/03 10:14:18;;;;;;;1.80;1.65;;;22.60;55.00;;;;;;5093976;28;20028;-39
2024/04/03 10:16:44;;;;;;;1.90;1.60;;;22.50;54.80;;;;;;5096245;28;20028;-38
2024/04/03 10:19:10;;;;;;;2.15;1.67;;;22.50;54.90;;;;;;5108419;28;20029;-37
2024/04/03 10:21:36;;;;;;;1.88;1.63;;;22.50;54.90;;;;;;5105738;28;20023;-38
2024/04/03 10:24:03;;;;;;;2.47;1.85;;;22.50;54.90;;;;;;5103934;28;20103;-38
2024/04/03 10:26:30;;;;;;;3.08;2.17;;;22.50;54.90;;;;;;5109447;28;20032;-37
2024/04/03 10:29:03;;;;;;;2.40;1.88;;;22.50;55.30;;;;;;5109745;28;20040;-38
2024/04/03 10:31:29;;;;;;;2.03;1.80;;;22.50;54.90;;;;;;5092616;28;20060;-38
2024/04/03 10:33:55;;;;;;;2.47;1.90;;;22.50;54.90;;;;;;5096913;28;20055;-35
2024/04/03 10:36:22;;;;;;;1.73;1.63;;;22.50;55.00;;;;;;5096093;28;20051;-37
2024/04/03 10:38:48;;;;;;;1.88;1.70;;;22.40;54.90;;;;;;5096227;28;20035;-38
2024/04/03 10:41:14;;;;;;;2.25;1.92;;;22.40;55.00;;;;;;5100266;28;20035;-37
2024/04/03 10:43:40;;;;;;;3.42;2.00;;;22.40;55.00;;;;;;5092645;28;20032;-38
2024/04/03 10:46:11;;;;;;;2.17;1.67;;;22.40;55.00;;;;;;5110789;28;20130;-38
2024/04/03 10:48:43;;;;;;;1.90;1.58;;;22.40;55.00;;;;;;5107113;27;20051;-38
2024/04/03 10:51:09;;;;;;;2.42;1.70;;;22.40;55.00;;;;;;5110923;28;20028;-39
2024/04/03 10:53:35;;;;;;;2.10;1.77;;;22.40;55.00;;;;;;5095716;28;20393;-39
2024/04/03 10:56:01;;;;;;;2.78;1.98;;;22.40;55.00;;;;;;5112976;28;20024;-36
2024/04/03 10:58:29;;;;;;;2.08;1.90;;;22.40;55.00;;;;;;5105952;28;20028;-37
2024/04/03 11:00:55;;;;;;;2.35;1.70;;;22.40;55.10;;;;;;5092918;28;20028;-39
2024/04/03 11:03:22;;;;;;;2.00;1.70;;;22.40;55.10;;;;;;5090933;28;20032;-38
2024/04/03 11:05:49;;;;;;;1.98;1.75;;;22.30;55.10;;;;;;5091834;28;20024;-38
2024/04/03 11:08:16;;;;;;;2.30;2.10;;;22.30;55.10;;;;;;5107721;28;20039;-38
2024/04/03 11:10:42;;;;;;;2.83;1.90;;;22.30;55.10;;;;;;5114143;28;20027;-38
2024/04/03 11:13:09;;;;;;;1.73;1.60;;;22.30;55.10;;;;;;5098642;28;20495;-39
2024/04/03 11:15:35;;;;;;;;;;;22.30;55.10;;;;;;5090314;28;20035;-39
2024/04/03 11:18:01;;;;;;;1.92;1.70;;;22.30;55.10;;;;;;5118774;28;20447;-38
2024/04/03 11:20:28;;;;;;;2.10;1.75;;;22.30;55.10;;;;;;5094429;28;20055;-38
2024/04/03 11:22:56;;;;;;;1.80;1.60;;;22.30;55.10;;;;;;5107851;28;20411;-36
2024/04/03 11:25:22;;;;;;;;;;;22.30;55.10;;;;;;5103122;28;20024;-38
2024/04/03 11:27:49;;;;;;;1.90;1.67;;;22.30;55.10;;;;;;5106942;28;19908;-38
2024/04/03 11:30:15;;;;;;;3.08;1.80;;;22.30;55.20;;;;;;5098690;28;20074;-38
2024/04/03 11:32:41;;;;;;;1.80;1.70;;;22.30;55.20;;;;;;5091131;28;20050;-39
2024/04/03 11:35:08;;;;;;;2.30;2.10;;;22.20;55.20;;;;;;5095172;28;20028;-38
2024/04/03 11:37:35;;;;;;;2.03;1.75;;;22.20;55.20;;;;;;5116461;28;20043;-37
2024/04/03 11:40:04;;;;;;;2.08;1.83;;;22.20;55.30;;;;;;5111817;28;20027;-38
2024/04/03 11:42:31;;;;;;;2.08;1.90;;;22.20;55.20;;;;;;5104418;28;20035;-38
2024/04/03 11:44:58;;;;;;;2.45;1.50;;;22.20;55.20;;;;;;5108135;28;20073;-37
2024/04/03 11:47:24;;;;;;;1.92;1.80;;;22.20;55.30;;;;;;5105992;28;20121;-39
2024/04/03 11:49:50;;;;;;;2.00;1.80;;;22.20;55.20;;;;;;5102332;28;20028;-39
2024/04/03 11:52:17;;;;;;;2.35;1.80;;;22.20;55.30;;;;;;5108875;28;20047;-39
2024/04/03 11:54:43;;;;;;;2.67;1.80;;;22.20;55.30;;;;;;5101930;28;20028;-41
2024/04/03 11:57:09;;;;;;;3.17;1.50;;;22.10;55.30;;;;;;5109082;28;20028;-38
2024/04/03 11:59:37;;;;;;;1.80;1.60;;;22.10;55.30;;;;;;5117556;28;20047;-39
2024/04/03 12:02:04;;;;;;;2.58;1.73;;;22.10;55.30;;;;;;5111935;28;20039;-39
2024/04/03 12:04:31;;;;;;;2.25;1.60;;;22.10;55.40;;;;;;5111270;28;20028;-38
2024/04/03 12:06:58;;;;;;;3.25;1.88;;;22.10;55.90;;;;;;5094375;28;20091;-38
2024/04/03 12:09:24;;;;;;;1.98;1.63;;;22.10;55.40;;;;;;5110847;28;20035;-38
2024/04/03 12:11:50;;;;;;;1.92;1.63;;;22.10;55.40;;;;;;5109170;28;20036;-39
2024/04/03 12:14:17;;;;;;;3.10;1.83;;;22.10;55.50;;;;;;5107117;28;20027;-39
2024/04/03 12:16:43;;;;;;;2.58;1.92;;;22.10;55.40;;;;;;5118420;28;20054;-36
2024/04/03 12:21:54;;;;;;;3.35;2.00;;;22.10;55.50;;;;;;5090330;28;20101;-39
2024/04/03 12:24:20;;;;;;;2.33;1.75;;;22.00;55.40;;;;;;5090625;27;20047;-39
2024/04/03 12:26:46;;;;;;;1.98;1.77;;;22.00;55.40;;;;;;5097366;28;20578;-39
2024/04/03 12:29:13;;;;;;;1.98;1.55;;;22.00;55.40;;;;;;5098503;28;20108;-39
2024/04/03 12:31:40;;;;;;;2.60;1.73;;;22.00;55.40;;;;;;5105979;28;20085;-37
2024/04/03 12:34:09;;;;;;;1.85;1.60;;;22.00;55.50;;;;;;5096254;28;20040;-39
2024/04/03 12:36:37;;;;;;;1.50;1.40;;;22.00;55.50;;;;;;5087850;28;20044;-37
2024/04/03 12:39:08;;;;;;;1.98;1.50;;;22.00;55.50;;;;;;5099726;28;20036;-38
2024/04/03 12:41:35;;;;;;;1.70;1.60;;;22.00;55.50;;;;;;5117709;28;20057;-39
2024/04/03 12:44:01;;;;;;;2.03;1.70;;;22.00;55.60;;;;;;5107474;28;20049;-39
2024/04/03 12:46:28;;;;;;;1.92;1.60;;;22.00;55.60;;;;;;5111519;28;20035;-37
2024/04/03 12:48:55;;;;;;;3.30;1.70;;;22.00;55.60;;;;;;5107629;28;20040;-35
2024/04/03 12:51:21;;;;;;;4.05;1.58;;;21.90;55.50;;;;;;5097963;28;20058;-37
2024/04/03 12:53:47;;;;;;;2.37;1.70;;;21.90;55.50;;;;;;5105815;28;20045;-36
2024/04/03 12:56:13;;;;;;;1.95;1.63;;;21.90;55.60;;;;;;5107500;28;20279;-37
2024/04/03 12:58:40;;;;;;;2.22;1.80;;;21.90;55.50;;;;;;5098892;28;20028;-36
2024/04/03 13:01:07;;;;;;;1.95;1.65;;;21.90;55.50;;;;;;5096607;28;20384;-33
2024/04/03 13:03:57;;;;;;;1.92;1.40;;;21.90;55.50;;;;;;5111818;28;20097;-37
2024/04/03 13:06:30;;;;;;;2.83;1.75;;;21.90;55.60;;;;;;5075555;28;20052;-38
2024/04/03 13:08:56;;;;;;;1.52;1.23;;;21.90;55.60;;;;;;5083200;28;20036;-36
2024/04/03 13:11:22;;;;;;;3.85;1.58;;;21.90;55.60;;;;;;5093458;28;20040;-36
2024/04/03 13:13:48;;;;;;;3.17;1.33;;;21.90;55.70;;;;;;5093217;28;20040;-36
2024/04/03 13:16:15;;;;;;;1.90;1.40;;;21.90;55.60;;;;;;5083269;28;20028;-38
2024/04/03 13:18:41;;;;;;;1.48;1.38;;;21.90;55.60;;;;;;5096987;28;20039;-35
2024/04/03 13:21:07;;;;;;;1.92;1.23;;;21.90;55.60;;;;;;5083311;28;20110;-39
2024/04/03 13:23:34;;;;;;;1.45;1.35;;;21.90;55.60;;;;;;5082327;28;20045;-38
2024/04/03 13:26:00;;;;;;;;;;;21.80;55.60;;;;;;5082010;28;20031;-35
2024/04/03 13:28:26;;;;;;;2.40;1.23;;;21.80;55.50;;;;;;5083228;28;19908;-34
2024/04/03 13:30:53;;;;;;;1.95;1.30;;;21.80;55.50;;;;;;5090677;28;20078;-36
2024/04/03 13:33:22;;;;;;;2.13;1.40;;;21.80;55.60;;;;;;5082630;28;20036;-37